Time;durP1;ratioP1;P1;durP2;ratioP2;P2;SDS_P1;SDS_P2;PMS_P1;PMS_P2;Temp;Humidity;BMP_temperature;BMP_pressure;BME280_temperature;BME280_humidity;BME280_pressure;Samples;Min_cycle;Max_cycle;Signal;HPM_P1;HPM_P2
2022/03/28 00:02:20;;;;;;;8.30;7.50;;;9.80;1.00;;;;;;6274131;28;20332;-54
2022/03/28 00:05:23;;;;;;;8.73;7.93;;;9.70;1.00;;;;;;6279170;28;20241;-55
2022/03/28 00:08:25;;;;;;;8.50;7.80;;;9.70;1.00;;;;;;6268978;28;20510;-54
2022/03/28 00:11:28;;;;;;;7.70;7.20;;;9.60;1.00;;;;;;6283103;28;20240;-55
2022/03/28 00:14:31;;;;;;;7.67;7.20;;;9.60;1.00;;;;;;6275839;28;20435;-54
2022/03/28 00:17:36;;;;;;;7.50;7.00;;;9.60;1.00;;;;;;6284032;28;20336;-54
2022/03/28 00:20:39;;;;;;;8.03;7.43;;;9.50;1.00;;;;;;6285688;28;20600;-54
2022/03/28 00:23:42;;;;;;;7.83;7.17;;;9.60;1.00;;;;;;6259852;28;20716;-54
2022/03/28 00:26:45;;;;;;;7.30;6.80;;;9.40;1.00;;;;;;6279094;28;20267;-55
2022/03/28 00:29:48;;;;;;;8.20;7.50;;;9.40;1.00;;;;;;6284785;28;20370;-54
2022/03/28 00:32:52;;;;;;;9.30;8.50;;;9.40;1.00;;;;;;6284234;28;20233;-53
2022/03/28 00:35:55;;;;;;;8.17;7.50;;;9.40;1.00;;;;;;6276730;28;20331;-53
2022/03/28 00:38:57;;;;;;;8.33;7.47;;;9.40;1.00;;;;;;6283015;28;20617;-55
2022/03/28 00:42:02;;;;;;;8.03;7.37;;;9.40;1.00;;;;;;6283141;28;20611;-54
2022/03/28 00:45:06;;;;;;;8.30;7.67;;;9.30;1.00;;;;;;6267478;28;20677;-53
2022/03/28 00:48:12;;;;;;;8.43;7.80;;;9.30;1.00;;;;;;6274562;28;20472;-54
2022/03/28 00:51:14;;;;;;;8.80;8.00;;;9.30;1.00;;;;;;6257557;28;20667;-55
2022/03/28 00:54:17;;;;;;;8.77;8.00;;;9.30;1.00;;;;;;6256707;28;20458;-54
2022/03/28 00:57:20;;;;;;;8.07;7.47;;;9.20;1.00;;;;;;6261925;28;20320;-54
2022/03/28 01:00:23;;;;;;;8.73;8.03;;;9.20;1.00;;;;;;6284363;28;20317;-55
2022/03/28 01:03:27;;;;;;;9.93;8.70;;;9.20;1.00;;;;;;6283940;28;20317;-55
2022/03/28 01:06:32;;;;;;;9.63;8.67;;;9.20;1.00;;;;;;6272980;28;20241;-54
2022/03/28 01:09:35;;;;;;;9.60;8.60;;;9.30;1.00;;;;;;6263524;28;20252;-55
2022/03/28 01:12:42;;;;;;;10.00;8.90;;;9.20;1.00;;;;;;6276192;28;20828;-54
2022/03/28 01:15:46;;;;;;;12.73;8.83;;;9.30;1.00;;;;;;6282155;28;20490;-54
2022/03/28 01:18:49;;;;;;;12.70;9.40;;;9.30;1.00;;;;;;6286562;28;20237;-54
2022/03/28 01:21:54;;;;;;;11.43;9.03;;;9.30;1.00;;;;;;6263632;28;20285;-55
2022/03/28 01:25:01;;;;;;;10.83;9.17;;;9.30;1.00;;;;;;6280478;28;20286;-54
2022/03/28 01:28:05;;;;;;;11.03;9.10;;;9.20;1.00;;;;;;6278735;28;20307;-55
2022/03/28 01:31:08;;;;;;;9.63;8.80;;;9.20;1.00;;;;;;6263712;28;20758;-55
2022/03/28 01:34:17;;;;;;;9.67;8.50;;;9.20;1.00;;;;;;6271517;28;20321;-54
2022/03/28 01:37:21;;;;;;;9.23;8.53;;;9.20;1.00;;;;;;6282812;28;20714;-54
2022/03/28 01:40:24;;;;;;;10.63;9.10;;;9.20;1.00;;;;;;6267846;28;20236;-55
2022/03/28 01:43:27;;;;;;;9.80;8.80;;;9.10;1.00;;;;;;6279279;28;20328;-53
2022/03/28 01:46:30;;;;;;;9.80;8.80;;;9.10;1.00;;;;;;6278617;28;20766;-60
2022/03/28 01:49:33;;;;;;;8.93;8.07;;;9.00;1.00;;;;;;6267536;28;20379;-52
2022/03/28 01:52:37;;;;;;;9.67;8.27;;;9.00;1.00;;;;;;6261449;28;20313;-54
2022/03/28 01:55:39;;;;;;;10.47;9.43;;;9.00;1.00;;;;;;6263492;28;20258;-54
2022/03/28 01:58:42;;;;;;;12.30;9.40;;;9.00;1.00;;;;;;6283699;28;20263;-54
2022/03/28 02:01:45;;;;;;;12.30;8.90;;;8.90;1.00;;;;;;6287013;28;20330;-54
2022/03/28 02:04:54;;;;;;;13.17;9.47;;;8.90;1.00;;;;;;6273648;28;20242;-54
2022/03/28 02:07:59;;;;;;;12.80;9.70;;;8.90;1.00;;;;;;6260346;28;20227;-54
2022/03/28 02:11:02;;;;;;;11.40;9.40;;;8.90;1.00;;;;;;6270663;28;20244;-54
2022/03/28 02:14:05;;;;;;;13.03;9.40;;;8.90;1.00;;;;;;6278606;28;20245;-55
2022/03/28 02:17:18;;;;;;;12.37;9.77;;;8.90;1.00;;;;;;6286429;28;20382;-54
2022/03/28 02:20:21;;;;;;;9.93;8.93;;;8.90;1.00;;;;;;6272833;28;20325;-54
2022/03/28 02:23:25;;;;;;;10.87;9.53;;;8.90;1.00;;;;;;6261370;28;20332;-56
2022/03/28 02:26:28;;;;;;;13.33;9.33;;;8.80;1.00;;;;;;6261717;28;20792;-54
2022/03/28 02:29:30;;;;;;;10.33;8.90;;;8.80;1.00;;;;;;6270519;28;20233;-52
2022/03/28 02:32:33;;;;;;;8.80;8.07;;;8.70;1.00;;;;;;6264191;28;20241;-56
2022/03/28 02:35:36;;;;;;;10.63;9.00;;;8.70;1.00;;;;;;6276685;28;20406;-53
2022/03/28 02:38:40;;;;;;;12.57;9.27;;;8.60;1.00;;;;;;6283774;28;20283;-53
2022/03/28 02:41:43;;;;;;;12.60;8.83;;;8.60;1.00;;;;;;6276161;28;20237;-54
2022/03/28 02:44:46;;;;;;;10.73;9.10;;;8.60;1.00;;;;;;6276332;28;20324;-54
2022/03/28 02:47:48;;;;;;;12.07;9.07;;;8.60;1.00;;;;;;6285093;28;20324;-54
2022/03/28 02:50:51;;;;;;;12.77;9.23;;;8.60;1.00;;;;;;6261267;28;20229;-55
2022/03/28 02:53:56;;;;;;;12.50;8.70;;;8.60;1.00;;;;;;6259313;28;20251;-55
2022/03/28 02:56:59;;;;;;;10.23;8.77;;;8.50;1.00;;;;;;6259478;28;20682;-54
2022/03/28 03:00:01;;;;;;;11.20;8.30;;;8.50;1.00;;;;;;6259593;28;20254;-54
2022/03/28 03:03:04;;;;;;;13.17;9.00;;;8.50;1.00;;;;;;6265300;28;20291;-55
2022/03/28 03:06:10;;;;;;;17.83;9.17;;;8.50;1.00;;;;;;6274504;28;20238;-54
2022/03/28 03:09:14;;;;;;;8.90;7.77;;;8.50;1.00;;;;;;6274998;28;20287;-54
2022/03/28 03:12:17;;;;;;;11.90;8.53;;;8.50;1.00;;;;;;6275432;28;20366;-54
2022/03/28 03:15:20;;;;;;;12.30;8.17;;;8.50;1.00;;;;;;6271839;28;20226;-53
2022/03/28 03:18:22;;;;;;;16.70;8.57;;;8.50;1.00;;;;;;6271988;28;20854;-55
2022/03/28 03:21:25;;;;;;;20.00;8.40;;;8.50;1.00;;;;;;6280304;28;20347;-55
2022/03/28 03:24:30;;;;;;;13.97;8.43;;;8.40;1.00;;;;;;6281717;28;20252;-54
2022/03/28 03:27:35;;;;;;;11.97;8.37;;;8.50;1.00;;;;;;6263498;28;20577;-55
2022/03/28 03:30:38;;;;;;;11.90;8.17;;;8.40;1.00;;;;;;6278915;28;20287;-54
2022/03/28 03:33:41;;;;;;;8.57;7.13;;;8.40;1.00;;;;;;6263435;28;20383;-55
2022/03/28 03:36:45;;;;;;;10.97;7.70;;;8.50;1.00;;;;;;6273050;28;20349;-54
2022/03/28 03:39:51;;;;;;;8.93;7.83;;;8.40;1.00;;;;;;6277546;28;20318;-55
2022/03/28 03:42:53;;;;;;;11.33;8.00;;;8.40;1.00;;;;;;6279066;28;20368;-55
2022/03/28 03:45:57;;;;;;;12.10;8.17;;;8.40;1.00;;;;;;6275639;28;20244;-53
2022/03/28 03:49:00;;;;;;;15.10;8.37;;;8.30;1.00;;;;;;6277494;28;20645;-56
2022/03/28 03:52:04;;;;;;;9.33;8.30;;;8.20;1.00;;;;;;6278401;28;20383;-54
2022/03/28 03:55:10;;;;;;;12.33;8.63;;;8.30;1.00;;;;;;6276444;28;20272;-55
2022/03/28 03:58:13;;;;;;;12.27;8.33;;;8.30;1.00;;;;;;6277393;28;20246;-55
2022/03/28 04:01:16;;;;;;;14.30;8.90;;;8.20;1.00;;;;;;6278288;28;20312;-54
2022/03/28 04:04:21;;;;;;;8.93;8.10;;;8.20;1.00;;;;;;6288469;28;20320;-54
2022/03/28 04:07:23;;;;;;;12.00;8.50;;;8.10;1.00;;;;;;6277126;28;20772;-57
2022/03/28 04:10:28;;;;;;;13.70;8.17;;;8.00;1.00;;;;;;6283288;28;20282;-55
2022/03/28 04:13:30;;;;;;;9.97;8.13;;;8.00;1.00;;;;;;6285310;28;20237;-54
2022/03/28 04:16:33;;;;;;;12.23;8.20;;;8.00;1.00;;;;;;6267593;28;20293;-55
2022/03/28 04:19:36;;;;;;;11.93;8.07;;;7.90;1.00;;;;;;6279497;28;20606;-53
2022/03/28 04:22:39;;;;;;;10.93;7.67;;;8.00;1.00;;;;;;6282076;28;20220;-53
2022/03/28 04:25:43;;;;;;;10.07;8.20;;;7.90;1.00;;;;;;6278710;28;20291;-53
2022/03/28 04:28:47;;;;;;;13.60;8.00;;;7.90;1.00;;;;;;6289908;28;20306;-54
2022/03/28 04:31:50;;;;;;;12.03;8.47;;;7.90;1.00;;;;;;6288387;28;20430;-55
2022/03/28 04:34:53;;;;;;;9.73;7.77;;;7.90;1.00;;;;;;6275990;28;20229;-54
2022/03/28 04:37:56;;;;;;;14.73;7.90;;;7.80;1.00;;;;;;6278627;28;20535;-54
2022/03/28 04:41:00;;;;;;;8.30;7.60;;;7.80;1.00;;;;;;6272793;28;20279;-54
2022/03/28 04:44:03;;;;;;;9.10;7.80;;;7.80;1.00;;;;;;6272103;28;20233;-54
2022/03/28 04:47:06;;;;;;;11.53;8.70;;;7.80;1.00;;;;;;6282350;28;20544;-54
2022/03/28 04:50:10;;;;;;;12.27;8.23;;;7.80;1.00;;;;;;6265145;28;20228;-49
2022/03/28 04:53:13;;;;;;;11.63;8.83;;;7.80;1.00;;;;;;6287105;28;20228;-53
2022/03/28 04:56:17;;;;;;;13.50;8.63;;;7.80;1.00;;;;;;6281505;28;20773;-55
2022/03/28 04:59:20;;;;;;;13.67;8.20;;;7.70;1.00;;;;;;6281429;28;20231;-55
2022/03/28 05:02:23;;;;;;;15.57;9.43;;;7.70;1.00;;;;;;6282637;28;20374;-55
2022/03/28 05:05:26;;;;;;;11.13;8.97;;;7.70;1.00;;;;;;6270603;28;20283;-54
2022/03/28 05:08:28;;;;;;;13.63;9.80;;;7.70;1.00;;;;;;6284884;28;20298;-54
2022/03/28 05:11:33;;;;;;;9.30;8.50;;;7.60;1.00;;;;;;6288883;28;20442;-55
2022/03/28 05:14:36;;;;;;;11.07;9.27;;;7.60;1.00;;;;;;6280580;28;20749;-55
2022/03/28 05:17:39;;;;;;;11.30;10.07;;;7.60;1.00;;;;;;6276876;28;20290;-55
2022/03/28 05:20:44;;;;;;;11.80;8.80;;;7.60;1.00;;;;;;6289578;28;20298;-55
2022/03/28 05:23:47;;;;;;;14.20;9.50;;;7.60;1.00;;;;;;6281399;28;20294;-55
2022/03/28 05:26:51;;;;;;;12.63;9.17;;;7.50;1.00;;;;;;6278773;28;20432;-53
2022/03/28 05:29:55;;;;;;;12.23;9.83;;;7.60;1.00;;;;;;6276668;28;20275;-55
2022/03/28 05:32:58;;;;;;;14.67;9.53;;;7.60;1.00;;;;;;6291115;28;20241;-55
2022/03/28 05:36:01;;;;;;;10.50;9.50;;;7.60;1.00;;;;;;6283195;28;20248;-56
2022/03/28 05:39:04;;;;;;;19.50;10.53;;;7.70;1.00;;;;;;6279381;28;20269;-55
2022/03/28 05:42:09;;;;;;;15.83;9.40;;;7.70;1.00;;;;;;6271500;28;20467;-55
2022/03/28 05:45:12;;;;;;;15.33;10.17;;;7.70;1.00;;;;;;6290459;28;20402;-55
2022/03/28 05:48:15;;;;;;;14.50;9.70;;;7.70;1.00;;;;;;6287651;28;20236;-54
2022/03/28 05:51:18;;;;;;;12.30;10.37;;;7.70;1.00;;;;;;6282909;28;20229;-53
2022/03/28 05:54:21;;;;;;;12.77;10.50;;;7.70;1.00;;;;;;6287958;28;20321;-55
2022/03/28 05:57:25;;;;;;;14.00;10.47;;;7.70;1.00;;;;;;6281096;28;20233;-53
2022/03/28 06:00:34;;;;;;;14.47;10.20;;;7.70;1.00;;;;;;6283094;28;20709;-55
2022/03/28 06:03:37;;;;;;;14.83;10.27;;;7.70;1.00;;;;;;6287213;28;20897;-53
2022/03/28 06:06:40;;;;;;;17.13;11.10;;;7.70;1.00;;;;;;6288341;28;20618;-56
2022/03/28 06:09:43;;;;;;;14.90;11.00;;;7.80;1.00;;;;;;6284694;28;20773;-54
2022/03/28 06:12:47;;;;;;;17.13;10.40;;;7.70;1.00;;;;;;6286424;28;20763;-54
2022/03/28 06:15:49;;;;;;;15.83;10.67;;;7.80;1.00;;;;;;6288278;28;20377;-54
2022/03/28 06:18:53;;;;;;;17.77;11.13;;;7.90;1.00;;;;;;6286565;28;20707;-55
2022/03/28 06:21:55;;;;;;;12.50;10.40;;;7.90;1.00;;;;;;6286457;28;20302;-55
2022/03/28 06:24:59;;;;;;;16.13;11.47;;;8.00;1.00;;;;;;6280984;28;20479;-54
2022/03/28 06:28:23;;;;;;;16.87;10.53;;;8.20;1.00;;;;;;6291862;28;20788;-55
2022/03/28 06:31:26;;;;;;;12.17;10.43;;;8.50;1.00;;;;;;6282650;28;20368;-54
2022/03/28 06:34:30;;;;;;;18.93;12.33;;;8.50;1.00;;;;;;6285337;28;20336;-54
2022/03/28 06:37:33;;;;;;;15.57;10.47;;;8.60;1.00;;;;;;6288850;28;20963;-54
2022/03/28 06:40:36;;;;;;;17.77;11.13;;;8.50;1.00;;;;;;6290501;28;20332;-54
2022/03/28 06:43:40;;;;;;;17.53;11.27;;;8.50;1.00;;;;;;6286035;28;20253;-54
2022/03/28 06:46:44;;;;;;;13.93;11.67;;;8.50;1.00;;;;;;6284605;28;20375;-53
2022/03/28 06:49:48;;;;;;;17.00;11.03;;;8.60;1.00;;;;;;6282702;28;20595;-55
2022/03/28 06:52:50;;;;;;;18.90;11.37;;;8.60;1.00;;;;;;6284184;28;20383;-55
2022/03/28 06:55:53;;;;;;;16.30;11.00;;;8.80;1.00;;;;;;6288148;28;20313;-54
2022/03/28 06:58:57;;;;;;;14.47;10.63;;;9.00;1.00;;;;;;6283456;28;20253;-55
2022/03/28 07:02:00;;;;;;;14.57;10.63;;;9.00;1.00;;;;;;6285044;28;20650;-55
2022/03/28 07:05:03;;;;;;;11.77;10.70;;;9.00;1.00;;;;;;6279856;28;20253;-55
2022/03/28 07:08:07;;;;;;;13.37;10.27;;;9.10;1.00;;;;;;6290169;28;20806;-56
2022/03/28 07:11:10;;;;;;;14.37;10.97;;;9.20;1.00;;;;;;6292060;28;20232;-55
2022/03/28 07:14:16;;;;;;;17.07;11.90;;;9.30;1.00;;;;;;6277428;28;20267;-55
2022/03/28 07:17:19;;;;;;;15.47;9.93;;;9.40;1.00;;;;;;6279451;28;20294;-55
2022/03/28 07:20:22;;;;;;;10.87;9.63;;;9.50;1.00;;;;;;6280146;28;20229;-55
2022/03/28 07:23:25;;;;;;;10.97;9.63;;;9.70;1.00;;;;;;6254302;28;20237;-51
2022/03/28 07:26:28;;;;;;;13.00;9.27;;;9.90;1.00;;;;;;6271403;28;20380;-54
2022/03/28 07:29:32;;;;;;;13.00;9.97;;;10.00;1.00;;;;;;6283048;28;20260;-55
2022/03/28 07:32:36;;;;;;;10.93;9.90;;;10.20;1.00;;;;;;6295730;28;20278;-56
2022/03/28 07:35:40;;;;;;;17.87;9.90;;;10.20;1.00;;;;;;6281037;28;20237;-54
2022/03/28 07:38:43;;;;;;;11.90;9.20;;;10.20;1.00;;;;;;6284514;28;20398;-57
2022/03/28 07:41:52;;;;;;;17.50;10.10;;;10.20;1.00;;;;;;6282669;28;20703;-54
2022/03/28 07:44:57;;;;;;;17.30;9.40;;;10.20;1.00;;;;;;6275099;28;20260;-55
2022/03/28 07:48:00;;;;;;;11.23;9.97;;;10.30;1.00;;;;;;6290801;28;20228;-54
2022/03/28 07:51:03;;;;;;;13.70;9.07;;;10.30;1.00;;;;;;6282331;28;20253;-54
2022/03/28 07:54:07;;;;;;;10.70;9.00;;;10.40;1.00;;;;;;6282534;28;20259;-54
2022/03/28 07:57:09;;;;;;;9.57;8.50;;;10.50;1.00;;;;;;6285434;28;20337;-54
2022/03/28 08:00:17;;;;;;;12.20;8.77;;;10.50;1.00;;;;;;6281492;28;20241;-55
2022/03/28 08:03:26;;;;;;;10.07;9.07;;;10.60;1.00;;;;;;6282813;28;20248;-54
2022/03/28 08:06:30;;;;;;;9.97;8.43;;;10.70;1.00;;;;;;6283449;28;20291;-54
2022/03/28 08:09:36;;;;;;;11.10;8.93;;;10.70;1.00;;;;;;6282721;28;20276;-55
2022/03/28 08:12:42;;;;;;;11.07;8.20;;;10.80;1.00;;;;;;6282320;28;20352;-55
2022/03/28 08:15:46;;;;;;;14.87;8.90;;;10.90;1.00;;;;;;6278962;28;20230;-54
2022/03/28 08:18:48;;;;;;;9.83;8.83;;;11.10;1.00;;;;;;6289164;28;20398;-54
2022/03/28 08:21:53;;;;;;;14.07;9.80;;;11.10;1.00;;;;;;6281960;28;20240;-55
2022/03/28 08:24:56;;;;;;;10.53;8.80;;;11.30;1.00;;;;;;6282034;28;20241;-54
2022/03/28 08:27:58;;;;;;;11.03;8.03;;;11.50;1.00;;;;;;6283740;28;20237;-54
2022/03/28 08:31:03;;;;;;;13.27;9.13;;;11.50;1.00;;;;;;6282373;28;20332;-54
2022/03/28 08:34:07;;;;;;;10.10;8.40;;;11.70;1.00;;;;;;6281542;28;20737;-54
2022/03/28 08:37:12;;;;;;;13.27;9.23;;;11.80;1.00;;;;;;6285316;28;20740;-54
2022/03/28 08:40:15;;;;;;;13.53;8.97;;;11.70;1.00;;;;;;6283818;28;20283;-55
2022/03/28 08:43:19;;;;;;;9.27;8.07;;;11.80;1.00;;;;;;6280286;28;20298;-55
2022/03/28 08:46:24;;;;;;;10.73;8.67;;;11.70;1.00;;;;;;6284520;28;20233;-56
2022/03/28 08:49:27;;;;;;;10.73;8.13;;;11.90;1.00;;;;;;6280687;28;20720;-54
2022/03/28 08:52:30;;;;;;;12.60;8.50;;;12.00;1.00;;;;;;6284540;28;20251;-55
2022/03/28 08:55:40;;;;;;;13.47;8.97;;;12.10;1.00;;;;;;6273156;28;20265;-53
2022/03/28 08:58:43;;;;;;;10.27;7.50;;;12.30;1.00;;;;;;6275077;28;20840;-55
2022/03/28 09:01:49;;;;;;;8.77;7.87;;;12.40;1.00;;;;;;6290257;28;20544;-55
2022/03/28 09:04:56;;;;;;;9.63;7.87;;;12.40;1.00;;;;;;6286628;28;20237;-55
2022/03/28 09:07:59;;;;;;;9.50;7.53;;;12.50;1.00;;;;;;6273558;28;20690;-54
2022/03/28 09:11:20;;;;;;;8.77;8.00;;;12.50;1.00;;;;;;6291950;28;20402;-55
2022/03/28 09:14:29;;;;;;;9.17;7.17;;;12.60;1.00;;;;;;6280990;28;20241;-56
2022/03/28 09:17:40;;;;;;;8.53;7.10;;;12.70;1.00;;;;;;6281697;28;20244;-55
2022/03/28 09:20:49;;;;;;;7.07;6.43;;;12.90;1.00;;;;;;6287351;28;20318;-55
2022/03/28 09:23:53;;;;;;;10.80;6.77;;;13.00;1.00;;;;;;6284792;28;20724;-54
2022/03/28 09:27:11;;;;;;;7.27;6.53;;;13.00;1.00;;;;;;6280133;28;20228;-55
2022/03/28 09:30:15;;;;;;;7.43;6.73;;;13.10;1.00;;;;;;6280058;28;20286;-54
2022/03/28 09:33:19;;;;;;;6.93;6.33;;;13.20;1.00;;;;;;6286042;28;20238;-55
2022/03/28 09:36:35;;;;;;;7.30;6.70;;;13.30;1.00;;;;;;6280279;28;20662;-55
2022/03/28 09:39:38;;;;;;;7.60;6.83;;;13.40;1.00;;;;;;6290338;28;20805;-55
2022/03/28 09:42:49;;;;;;;12.10;7.00;;;13.40;1.00;;;;;;6288044;28;20329;-55
2022/03/28 09:45:53;;;;;;;8.17;6.67;;;13.60;1.00;;;;;;6281514;28;20233;-56
2022/03/28 09:48:59;;;;;;;7.37;6.67;;;13.70;1.00;;;;;;6280817;28;20241;-55
2022/03/28 09:52:04;;;;;;;7.67;7.03;;;13.80;1.00;;;;;;6286963;28;20324;-56
2022/03/28 09:55:09;;;;;;;7.20;6.60;;;13.80;1.00;;;;;;6279068;28;20481;-54
2022/03/28 09:58:32;;;;;;;7.90;6.90;;;13.90;1.00;;;;;;6276128;28;20263;-55
2022/03/28 10:01:39;;;;;;;9.87;6.70;;;14.00;1.00;;;;;;6281658;28;20710;-55
2022/03/28 10:04:46;;;;;;;10.33;6.77;;;14.20;1.00;;;;;;6284947;28;20320;-55
2022/03/28 10:07:51;;;;;;;9.37;7.13;;;14.30;1.00;;;;;;6282623;28;20376;-54
2022/03/28 10:10:54;;;;;;;8.47;6.93;;;14.50;1.00;;;;;;6284206;28;20601;-55
2022/03/28 10:13:58;;;;;;;8.07;7.00;;;14.70;1.00;;;;;;6280660;28;20269;-54
2022/03/28 10:17:05;;;;;;;7.70;6.73;;;14.80;1.00;;;;;;6284557;28;20287;-56
2022/03/28 10:20:10;;;;;;;7.57;6.70;;;14.80;1.00;;;;;;6285189;28;20630;-55
2022/03/28 10:23:38;;;;;;;8.23;6.47;;;14.90;1.00;;;;;;6267819;28;20230;-54
2022/03/28 10:26:56;;;;;;;6.97;6.27;;;14.90;1.00;;;;;;6284779;28;20238;-55
2022/03/28 10:30:11;;;;;;;7.13;6.13;;;15.10;1.00;;;;;;6281693;28;20270;-56
2022/03/28 10:33:17;;;;;;;7.67;6.40;;;15.10;1.00;;;;;;6280278;28;20379;-55
2022/03/28 10:36:24;;;;;;;6.90;6.33;;;15.20;1.00;;;;;;6285322;28;20667;-55
2022/03/28 10:39:37;;;;;;;9.30;6.13;;;15.30;1.00;;;;;;6283911;28;20325;-57
2022/03/28 10:42:46;;;;;;;9.40;6.00;;;15.50;1.00;;;;;;6284712;28;20570;-55
2022/03/28 10:45:51;;;;;;;6.57;5.97;;;15.50;1.00;;;;;;6280388;28;20244;-55
2022/03/28 10:48:59;;;;;;;6.97;6.27;;;15.50;1.00;;;;;;6284964;28;20852;-55
2022/03/28 10:52:04;;;;;;;6.33;5.67;;;15.70;1.00;;;;;;6281878;28;20233;-55
2022/03/28 10:55:08;;;;;;;7.90;5.70;;;15.90;1.00;;;;;;6294460;28;20794;-55
2022/03/28 10:58:26;;;;;;;6.67;5.80;;;16.00;1.00;;;;;;6283029;28;20640;-56
2022/03/28 11:01:32;;;;;;;5.77;5.27;;;16.10;1.00;;;;;;6286765;28;20714;-55
2022/03/28 11:04:47;;;;;;;6.50;5.97;;;16.00;1.00;;;;;;6286590;28;20245;-55
2022/03/28 11:08:01;;;;;;;8.23;6.03;;;16.10;1.00;;;;;;6283776;28;20237;-56
2022/03/28 11:11:19;;;;;;;7.33;5.93;;;16.20;1.00;;;;;;6280177;28;20555;-55
2022/03/28 11:14:39;;;;;;;6.70;6.20;;;16.00;1.00;;;;;;6288915;28;20314;-55
2022/03/28 11:17:57;;;;;;;6.80;6.10;;;16.00;1.00;;;;;;6280689;28;20229;-55
2022/03/28 11:21:10;;;;;;;6.87;6.17;;;16.00;1.00;;;;;;6286462;28;20237;-54
2022/03/28 11:24:52;;;;;;;8.43;5.73;;;16.10;1.00;;;;;;6281185;28;20865;-56
2022/03/28 11:28:03;;;;;;;9.17;5.77;;;16.30;1.00;;;;;;6276313;28;20257;-55
2022/03/28 11:31:08;;;;;;;6.17;5.60;;;16.30;1.00;;;;;;6292016;28;20386;-55
2022/03/28 11:34:13;;;;;;;5.40;5.00;;;16.30;1.00;;;;;;6281879;28;20381;-55
2022/03/28 11:37:18;;;;;;;5.83;5.30;;;16.40;1.00;;;;;;6284619;28;20315;-55
2022/03/28 11:40:22;;;;;;;8.87;6.23;;;16.30;1.00;;;;;;6285631;28;20245;-62
2022/03/28 11:43:30;;;;;;;7.60;5.17;;;16.40;1.00;;;;;;6283176;28;20244;-55
2022/03/28 11:46:32;;;;;;;5.83;5.10;;;16.40;1.00;;;;;;6279994;28;20528;-57
2022/03/28 11:49:50;;;;;;;6.03;5.33;;;16.40;1.00;;;;;;6283879;28;20247;-54
2022/03/28 11:52:53;;;;;;;7.00;5.50;;;16.60;1.00;;;;;;6284578;28;20328;-55
2022/03/28 11:55:58;;;;;;;5.37;4.87;;;16.60;1.00;;;;;;6271262;28;20244;-56
2022/03/28 11:59:02;;;;;;;5.70;5.30;;;16.70;1.00;;;;;;6282846;28;20304;-55
2022/03/28 12:02:07;;;;;;;5.70;5.30;;;16.80;1.00;;;;;;6283512;28;20241;-55
2022/03/28 12:05:09;;;;;;;5.30;4.90;;;16.90;1.00;;;;;;6288177;28;20233;-55
2022/03/28 12:08:14;;;;;;;6.43;5.73;;;16.90;1.00;;;;;;6300592;28;20685;-55
2022/03/28 12:11:18;;;;;;;6.77;6.23;;;16.80;1.00;;;;;;6284996;28;20661;-55
2022/03/28 12:14:23;;;;;;;5.83;5.27;;;16.80;1.00;;;;;;6283494;28;20377;-55
2022/03/28 12:17:27;;;;;;;7.53;5.87;;;16.80;1.00;;;;;;6287253;28;20236;-54
2022/03/28 12:20:32;;;;;;;5.87;5.47;;;16.90;1.00;;;;;;6281266;28;20715;-54
2022/03/28 12:23:38;;;;;;;5.20;4.90;;;16.80;1.00;;;;;;6289691;28;20315;-55
2022/03/28 12:26:46;;;;;;;5.90;5.50;;;17.00;1.00;;;;;;6283883;28;20336;-55
2022/03/28 12:29:52;;;;;;;5.37;4.97;;;17.00;1.00;;;;;;6280356;28;20311;-55
2022/03/28 12:32:55;;;;;;;6.63;6.00;;;17.20;1.00;;;;;;6287296;28;20343;-55
2022/03/28 12:35:59;;;;;;;7.40;6.77;;;17.30;1.00;;;;;;6282134;28;20449;-55
2022/03/28 12:39:06;;;;;;;8.33;7.53;;;17.30;1.00;;;;;;6277910;28;20222;-55
2022/03/28 12:42:24;;;;;;;6.40;5.80;;;17.20;1.00;;;;;;6279304;28;20239;-53
2022/03/28 12:45:28;;;;;;;6.33;5.83;;;17.00;1.00;;;;;;6274350;28;20245;-55
2022/03/28 12:48:38;;;;;;;6.53;6.07;;;17.10;1.00;;;;;;6282004;28;20636;-55
2022/03/28 12:51:41;;;;;;;8.20;5.80;;;16.90;1.00;;;;;;6276870;28;20851;-56
2022/03/28 12:54:44;;;;;;;7.00;6.50;;;17.00;1.00;;;;;;6281288;28;20385;-55
2022/03/28 12:57:52;;;;;;;7.70;7.03;;;17.10;1.00;;;;;;6288507;28;20376;-55
2022/03/28 13:01:04;;;;;;;6.47;6.07;;;17.00;1.00;;;;;;6288380;28;20244;-57
2022/03/28 13:04:12;;;;;;;6.20;5.47;;;17.00;1.00;;;;;;6286406;28;20745;-57
2022/03/28 13:07:19;;;;;;;4.77;4.57;;;17.00;1.00;;;;;;6287906;28;20367;-55
2022/03/28 13:10:26;;;;;;;5.20;4.70;;;17.00;1.00;;;;;;6284431;28;20233;-55
2022/03/28 13:13:35;;;;;;;4.43;4.23;;;17.10;1.00;;;;;;6289558;28;20310;-52
2022/03/28 13:16:38;;;;;;;6.40;4.63;;;17.00;1.00;;;;;;6287621;28;20240;-56
2022/03/28 13:19:43;;;;;;;5.00;4.60;;;17.00;1.00;;;;;;6285801;28;20229;-55
2022/03/28 13:22:47;;;;;;;5.57;5.17;;;17.10;1.00;;;;;;6286514;28;20839;-56
2022/03/28 13:25:50;;;;;;;5.23;4.93;;;17.20;1.00;;;;;;6285856;28;20464;-53
2022/03/28 13:29:15;;;;;;;4.60;4.40;;;17.30;1.00;;;;;;6288274;28;20322;-55
2022/03/28 13:32:18;;;;;;;4.80;4.60;;;17.20;1.00;;;;;;6287104;28;20714;-55
2022/03/28 13:35:27;;;;;;;5.03;4.60;;;17.30;1.00;;;;;;6285573;28;20317;-55
2022/03/28 13:38:32;;;;;;;5.23;4.83;;;17.30;1.00;;;;;;6284942;28;20240;-56
2022/03/28 13:41:36;;;;;;;5.70;4.90;;;17.40;1.00;;;;;;6287281;28;20316;-55
2022/03/28 13:44:40;;;;;;;5.60;5.20;;;17.30;1.00;;;;;;6283237;28;20257;-55
2022/03/28 13:47:42;;;;;;;6.03;5.53;;;17.30;1.00;;;;;;6285637;28;20239;-55
2022/03/28 13:50:47;;;;;;;6.30;5.80;;;17.30;1.00;;;;;;6286208;28;20271;-55
2022/03/28 13:54:11;;;;;;;4.90;4.70;;;17.30;1.00;;;;;;6278371;28;20238;-55
2022/03/28 13:57:13;;;;;;;5.50;5.17;;;17.40;1.00;;;;;;6284815;28;20395;-56
2022/03/28 14:00:18;;;;;;;6.50;5.20;;;17.50;1.00;;;;;;6286581;28;20274;-55
2022/03/28 14:03:39;;;;;;;5.73;5.40;;;17.60;1.00;;;;;;6286527;28;20236;-53
2022/03/28 14:06:42;;;;;;;7.23;6.47;;;17.70;1.00;;;;;;6281214;28;20376;-55
2022/03/28 14:09:45;;;;;;;6.30;5.37;;;17.70;1.00;;;;;;6284551;28;20456;-56
2022/03/28 14:12:47;;;;;;;6.33;4.80;;;17.70;1.00;;;;;;6290811;28;20770;-55
2022/03/28 14:15:53;;;;;;;5.97;5.57;;;17.70;1.00;;;;;;6286193;28;20617;-55
2022/03/28 14:18:57;;;;;;;6.57;5.50;;;17.50;1.00;;;;;;6283895;28;20439;-56
2022/03/28 14:22:00;;;;;;;6.07;5.60;;;17.50;1.00;;;;;;6283217;28;20264;-54
2022/03/28 14:25:04;;;;;;;5.50;5.10;;;17.60;1.00;;;;;;6277712;28;20238;-54
2022/03/28 14:28:07;;;;;;;6.63;6.20;;;17.70;1.00;;;;;;6285419;28;20285;-55
2022/03/28 14:31:11;;;;;;;7.47;6.10;;;17.70;1.00;;;;;;6293254;28;20322;-56
2022/03/28 14:34:15;;;;;;;6.20;5.70;;;17.60;1.00;;;;;;6287803;28;20738;-55
2022/03/28 14:37:18;;;;;;;6.47;5.83;;;17.60;1.00;;;;;;6278850;28;20233;-55
2022/03/28 14:40:28;;;;;;;7.97;6.27;;;17.60;1.00;;;;;;6284248;28;20437;-54
2022/03/28 14:43:31;;;;;;;7.47;6.37;;;17.60;1.00;;;;;;6272673;28;20338;-54
2022/03/28 14:49:58;;;;;;;7.30;5.67;;;17.70;1.00;;;;;;6278599;28;20245;-55
2022/03/28 14:53:01;;;;;;;8.40;6.37;;;17.60;1.00;;;;;;6284551;28;20233;-55
2022/03/28 14:56:04;;;;;;;7.00;6.30;;;17.60;1.00;;;;;;6285381;28;20241;-55
2022/03/28 14:59:27;;;;;;;7.07;6.37;;;17.60;1.00;;;;;;6283586;28;20233;-55
2022/03/28 15:02:31;;;;;;;7.70;6.30;;;17.70;1.00;;;;;;6285998;28;20316;-54
2022/03/28 15:05:36;;;;;;;6.70;6.20;;;17.80;1.00;;;;;;6291936;28;20306;-55
2022/03/28 15:08:38;;;;;;;9.23;6.43;;;17.90;1.00;;;;;;6282978;28;20237;-55
2022/03/28 15:11:43;;;;;;;7.37;6.67;;;17.70;1.00;;;;;;6280050;28;20241;-55
2022/03/28 15:14:46;;;;;;;7.80;7.00;;;17.80;1.00;;;;;;6282962;28;20237;-55
2022/03/28 15:17:50;;;;;;;10.23;6.97;;;17.80;1.00;;;;;;6274316;28;20366;-55
2022/03/28 15:20:53;;;;;;;7.53;6.83;;;18.00;1.00;;;;;;6285531;28;20522;-54
2022/03/28 15:23:56;;;;;;;7.30;6.47;;;17.80;1.00;;;;;;6284115;28;20316;-56
2022/03/28 15:26:59;;;;;;;8.73;6.97;;;17.70;1.00;;;;;;6277976;28;20327;-54
2022/03/28 15:30:02;;;;;;;7.67;6.93;;;17.60;1.00;;;;;;6281266;28;20237;-54
2022/03/28 15:33:06;;;;;;;11.40;7.23;;;17.70;1.00;;;;;;6291047;28;20706;-54
2022/03/28 15:36:09;;;;;;;7.97;7.20;;;17.60;1.00;;;;;;6282047;28;20948;-54
2022/03/28 15:39:15;;;;;;;7.20;6.10;;;17.50;1.00;;;;;;6289394;28;20478;-55
2022/03/28 15:42:18;;;;;;;8.57;6.13;;;17.30;1.00;;;;;;6284486;28;20511;-54
2022/03/28 15:45:27;;;;;;;7.20;6.37;;;17.10;1.00;;;;;;6278271;28;20310;-53
2022/03/28 15:48:33;;;;;;;7.83;6.63;;;17.00;1.00;;;;;;6285425;28;20714;-55
2022/03/28 15:51:37;;;;;;;8.07;6.37;;;16.90;1.00;;;;;;6285222;28;20225;-54
2022/03/28 15:54:43;;;;;;;9.50;6.53;;;16.80;1.00;;;;;;6282978;28;20245;-55
2022/03/28 15:57:45;;;;;;;8.03;7.33;;;16.70;1.00;;;;;;6282557;28;20259;-55
2022/03/28 16:00:48;;;;;;;6.57;6.07;;;16.50;1.00;;;;;;6279405;28;20452;-55
2022/03/28 16:03:54;;;;;;;6.80;6.20;;;16.40;1.00;;;;;;6282378;28;20233;-55
2022/03/28 16:06:57;;;;;;;6.87;6.27;;;16.30;1.00;;;;;;6270165;28;20722;-54
2022/03/28 16:10:00;;;;;;;6.10;5.60;;;16.20;1.00;;;;;;6263998;28;20261;-53
2022/03/28 16:13:03;;;;;;;5.77;5.27;;;16.10;1.00;;;;;;6282559;28;20238;-54
2022/03/28 16:16:07;;;;;;;5.53;4.87;;;15.90;1.00;;;;;;6279863;28;20733;-53
2022/03/28 16:19:12;;;;;;;5.10;4.60;;;15.90;1.00;;;;;;6285261;28;20311;-55